Time;durP1;ratioP1;P1;durP2;ratioP2;P2;SDS_P1;SDS_P2;PMS_P1;PMS_P2;Temp;Humidity;BMP_temperature;BMP_pressure;BME280_temperature;BME280_humidity;BME280_pressure;Samples;Min_cycle;Max_cycle;Signal;HPM_P1;HPM_P2
2023/03/31 00:01:29;;;;;;;4.97;1.90;;;;;;;;;;5020236;28;20237;-51
2023/03/31 00:04:03;;;;;;;2.20;2.03;;;;;;;;;;5026273;28;20250;-52
2023/03/31 00:06:30;;;;;;;7.10;2.73;;;;;;;;;;5044725;28;20228;-52
2023/03/31 00:09:00;;;;;;;5.63;2.30;;;;;;;;;;5029650;28;20229;-51
2023/03/31 00:11:29;;;;;;;7.20;2.23;;;;;;;;;;5021643;28;20229;-51
2023/03/31 00:13:55;;;;;;;3.97;2.10;;;;;;;;;;5013927;28;20728;-51
2023/03/31 00:16:22;;;;;;;6.97;2.57;;;;;;;;;;5021133;28;20580;-53
2023/03/31 00:18:50;;;;;;;6.93;2.60;;;;;;;;;;5043635;28;20240;-51
2023/03/31 00:21:24;;;;;;;7.13;2.73;;;;;;;;;;5038143;28;20233;-53
2023/03/31 00:23:51;;;;;;;3.70;1.77;;;;;;;;;;5028027;28;20271;-52
2023/03/31 00:26:17;;;;;;;5.00;2.53;;;;;;;;;;5037220;28;20769;-53
2023/03/31 00:28:44;;;;;;;3.77;1.93;;;;;;;;;;5047723;28;20231;-52
2023/03/31 00:31:10;;;;;;;2.87;1.80;;;;;;;;;;5030992;28;20268;-51
2023/03/31 00:33:37;;;;;;;5.47;2.23;;;;;;;;;;5045640;28;20227;-53
2023/03/31 00:36:05;;;;;;;3.87;1.60;;;;;;;;;;5040204;28;20228;-53
2023/03/31 00:38:32;;;;;;;8.33;1.80;;;;;;;;;;5043553;28;20236;-52
2023/03/31 00:40:59;;;;;;;4.53;1.50;;;;;;;;;;5026386;28;20243;-52
2023/03/31 00:43:30;;;;;;;5.63;2.00;;;;;;;;;;5017887;28;20267;-52
2023/03/31 00:46:01;;;;;;;5.50;1.90;;;;;;;;;;5002074;28;20232;-52
2023/03/31 00:48:28;;;;;;;3.57;2.10;;;;;;;;;;5017590;28;20233;-51
2023/03/31 00:50:56;;;;;;;5.10;1.97;;;;;;;;;;5027162;28;20219;-52
2023/03/31 00:53:25;;;;;;;4.30;2.00;;;;;;;;;;5015936;28;20582;-53
2023/03/31 00:55:54;;;;;;;3.07;2.00;;;;;;;;;;5030507;28;20583;-52
2023/03/31 00:58:21;;;;;;;2.43;1.53;;;;;;;;;;5025391;28;20232;-52
2023/03/31 01:00:50;;;;;;;2.10;1.70;;;;;;;;;;5029519;28;20289;-51
2023/03/31 01:03:17;;;;;;;5.60;2.03;;;;;;;;;;5029483;28;20841;-52
2023/03/31 01:05:46;;;;;;;4.37;1.83;;;;;;;;;;5026618;28;20630;-53
2023/03/31 01:08:13;;;;;;;5.83;1.83;;;;;;;;;;5030039;28;20235;-52
2023/03/31 01:10:43;;;;;;;2.47;1.97;;;;;;;;;;5023922;28;20229;-53
2023/03/31 01:13:10;;;;;;;4.73;1.67;;;;;;;;;;5012662;28;20234;-51
2023/03/31 01:15:37;;;;;;;3.67;1.70;;;;;;;;;;5025425;28;20327;-51
2023/03/31 01:18:04;;;;;;;3.23;1.10;;;;;;;;;;5031474;28;20239;-51
2023/03/31 01:20:36;;;;;;;4.90;2.00;;;;;;;;;;5033012;28;20243;-54
2023/03/31 01:23:15;;;;;;;6.33;1.87;;;;;;;;;;5037539;28;20253;-52
2023/03/31 01:26:03;;;;;;;3.43;1.33;;;;;;;;;;5041291;28;20238;-53
2023/03/31 01:28:34;;;;;;;2.73;1.70;;;;;;;;;;5036588;28;20236;-51
2023/03/31 01:31:15;;;;;;;5.53;1.40;;;;;;;;;;5031035;28;20238;-50
2023/03/31 01:34:07;;;;;;;2.17;1.27;;;;;;;;;;5035951;28;20228;-52
2023/03/31 01:36:51;;;;;;;3.13;1.93;;;;;;;;;;5022873;28;20755;-54
2023/03/31 01:42:24;;;;;;;2.40;1.57;;;;;;;;;;5056421;27;20584;-52
2023/03/31 01:44:57;;;;;;;3.43;1.43;;;;;;;;;;5054991;28;20234;-51
2023/03/31 01:47:28;;;;;;;4.73;1.50;;;;;;;;;;5056094;28;20254;-54
2023/03/31 01:49:57;;;;;;;6.13;1.93;;;;;;;;;;5061342;28;20757;-50
2023/03/31 01:52:26;;;;;;;2.17;1.50;;;;;;;;;;5059473;28;20295;-53
2023/03/31 01:54:54;;;;;;;3.73;1.57;;;;;;;;;;5061102;28;20246;-53
2023/03/31 01:57:24;;;;;;;1.77;1.63;;;;;;;;;;5059293;28;20281;-55
2023/03/31 01:59:54;;;;;;;3.13;1.33;;;;;;;;;;5053341;28;20239;-52
2023/03/31 02:02:25;;;;;;;5.13;1.93;;;;;;;;;;5036240;28;20236;-53
2023/03/31 02:04:53;;;;;;;1.40;1.20;;;;;;;;;;5040733;28;20228;-53
2023/03/31 02:07:22;;;;;;;2.43;1.20;;;;;;;;;;5039782;28;20242;-53
2023/03/31 02:09:50;;;;;;;3.97;1.50;;;;;;;;;;5038646;28;20785;-52
2023/03/31 02:12:17;;;;;;;2.77;1.40;;;;;;;;;;5039070;28;20236;-53
2023/03/31 02:14:46;;;;;;;3.00;1.60;;;;;;;;;;5039054;28;20313;-52
2023/03/31 02:17:16;;;;;;;2.00;1.33;;;;;;;;;;5038131;28;20228;-51
2023/03/31 02:19:44;;;;;;;6.60;1.30;;;;;;;;;;5038140;28;20236;-53
2023/03/31 02:22:12;;;;;;;4.80;1.63;;;;;;;;;;5040327;28;20785;-51
2023/03/31 02:24:40;;;;;;;1.40;1.20;;;;;;;;;;5042200;28;20220;-53
2023/03/31 02:27:15;;;;;;;2.67;1.43;;;;;;;;;;5041314;28;20234;-52
2023/03/31 02:29:42;;;;;;;4.47;1.30;;;;;;;;;;5048561;28;20713;-51
2023/03/31 02:32:12;;;;;;;3.67;1.57;;;;;;;;;;5050896;28;20235;-53
2023/03/31 02:34:39;;;;;;;3.13;2.53;;;;;;;;;;5058976;28;20632;-52
2023/03/31 02:37:07;;;;;;;4.67;1.30;;;;;;;;;;5059211;28;20357;-52
2023/03/31 02:39:34;;;;;;;3.80;1.50;;;;;;;;;;5060452;28;20227;-52
2023/03/31 02:42:05;;;;;;;5.17;1.83;;;;;;;;;;5054604;28;20471;-54
2023/03/31 02:44:32;;;;;;;5.87;1.60;;;;;;;;;;5058052;28;20235;-53
2023/03/31 02:46:59;;;;;;;3.17;1.70;;;;;;;;;;5052583;28;20270;-55
2023/03/31 02:49:27;;;;;;;4.17;1.40;;;;;;;;;;5056121;28;20266;-54
2023/03/31 02:52:02;;;;;;;5.57;1.83;;;;;;;;;;5054987;28;20243;-52
2023/03/31 02:54:43;;;;;;;1.90;1.30;;;;;;;;;;5041665;28;20239;-53
2023/03/31 02:57:20;;;;;;;3.00;1.27;;;;;;;;;;5042400;28;20335;-52
2023/03/31 02:59:49;;;;;;;2.17;1.53;;;;;;;;;;5044348;28;20232;-51
2023/03/31 03:02:19;;;;;;;3.50;1.47;;;;;;;;;;5039833;28;20671;-52
2023/03/31 03:05:03;;;;;;;3.33;1.70;;;;;;;;;;5043269;28;20228;-52
2023/03/31 03:07:34;;;;;;;3.37;1.47;;;;;;;;;;5034234;28;20259;-50
2023/03/31 03:10:02;;;;;;;2.57;1.33;;;;;;;;;;5033233;28;20248;-52
2023/03/31 03:12:33;;;;;;;1.40;1.10;;;;;;;;;;5029973;28;20239;-53
2023/03/31 03:15:01;;;;;;;5.70;1.70;;;;;;;;;;5036305;28;20294;-52
2023/03/31 03:17:30;;;;;;;4.17;1.53;;;;;;;;;;5035142;28;20270;-51
2023/03/31 03:19:58;;;;;;;1.53;0.90;;;;;;;;;;5033831;28;20236;-53
2023/03/31 03:22:26;;;;;;;1.70;1.13;;;;;;;;;;5036251;28;20283;-52
2023/03/31 03:24:53;;;;;;;6.33;2.40;;;;;;;;;;5036199;28;20241;-53
2023/03/31 03:27:21;;;;;;;3.83;1.40;;;;;;;;;;5031981;28;20755;-52
2023/03/31 03:29:47;;;;;;;3.53;1.10;;;;;;;;;;5034800;28;20256;-51
2023/03/31 03:32:14;;;;;;;1.90;1.20;;;;;;;;;;5044794;28;20228;-53
2023/03/31 03:34:41;;;;;;;1.77;1.40;;;;;;;;;;5044810;28;20278;-53
2023/03/31 03:37:07;;;;;;;2.73;1.03;;;;;;;;;;5043324;28;20713;-51
2023/03/31 03:39:35;;;;;;;2.20;1.30;;;;;;;;;;5044078;28;20319;-51
2023/03/31 03:42:02;;;;;;;1.70;1.03;;;;;;;;;;5034022;28;20241;-51
2023/03/31 03:44:28;;;;;;;1.33;1.10;;;;;;;;;;5035185;28;20800;-51
2023/03/31 03:46:55;;;;;;;5.03;1.30;;;;;;;;;;5035354;28;20221;-53
2023/03/31 03:49:21;;;;;;;1.60;1.50;;;;;;;;;;5035763;28;20254;-52
2023/03/31 03:51:48;;;;;;;2.30;1.13;;;;;;;;;;5029858;28;20228;-53
2023/03/31 03:54:15;;;;;;;2.43;1.33;;;;;;;;;;5034395;28;20247;-53
2023/03/31 03:56:43;;;;;;;2.83;1.30;;;;;;;;;;5032348;28;20290;-53
2023/03/31 03:59:10;;;;;;;3.43;1.47;;;;;;;;;;5033554;28;21951;-52
2023/03/31 04:01:37;;;;;;;2.40;1.10;;;;;;;;;;5034812;28;20277;-51
2023/03/31 04:04:04;;;;;;;4.27;1.43;;;;;;;;;;5031081;28;20229;-52
2023/03/31 04:06:30;;;;;;;1.37;1.27;;;;;;;;;;5035484;28;20346;-50
2023/03/31 04:08:57;;;;;;;2.73;1.43;;;;;;;;;;5034764;28;20273;-54
2023/03/31 04:11:24;;;;;;;3.37;1.30;;;;;;;;;;5026482;28;20232;-50
2023/03/31 04:13:53;;;;;;;1.67;1.07;;;;;;;;;;5029500;28;20243;-53
2023/03/31 04:16:19;;;;;;;1.70;1.33;;;;;;;;;;5031789;28;22072;-51
2023/03/31 04:18:47;;;;;;;2.77;1.37;;;;;;;;;;5034117;28;20232;-52
2023/03/31 04:21:21;;;;;;;3.57;1.37;;;;;;;;;;5035337;28;20312;-52
2023/03/31 04:23:48;;;;;;;3.27;1.57;;;;;;;;;;5033287;28;20223;-53
2023/03/31 04:26:16;;;;;;;3.40;1.27;;;;;;;;;;5030944;28;20236;-50
2023/03/31 04:28:45;;;;;;;2.47;1.30;;;;;;;;;;5031336;28;20236;-51
2023/03/31 04:31:15;;;;;;;2.57;1.37;;;;;;;;;;5037024;28;20282;-52
2023/03/31 04:33:44;;;;;;;1.93;1.13;;;;;;;;;;5032808;28;20226;-54
2023/03/31 04:36:16;;;;;;;3.20;1.63;;;;;;;;;;5031412;28;20240;-53
2023/03/31 04:38:45;;;;;;;4.67;1.50;;;;;;;;;;5030164;28;20291;-52
2023/03/31 04:41:12;;;;;;;3.27;1.33;;;;;;;;;;5022115;28;20237;-51
2023/03/31 04:43:38;;;;;;;1.70;1.60;;;;;;;;;;5027306;28;20251;-51
2023/03/31 04:46:05;;;;;;;1.83;1.40;;;;;;;;;;5034464;28;20247;-53
2023/03/31 04:48:33;;;;;;;2.70;1.30;;;;;;;;;;5037856;28;20252;-54
2023/03/31 04:50:59;;;;;;;1.47;1.10;;;;;;;;;;5033404;28;20232;-54
2023/03/31 04:53:26;;;;;;;2.57;1.27;;;;;;;;;;5037207;28;20224;-52
2023/03/31 04:55:52;;;;;;;1.80;1.30;;;;;;;;;;5027535;28;20321;-51
2023/03/31 04:58:19;;;;;;;4.23;1.97;;;;;;;;;;5033885;28;20236;-52
2023/03/31 05:00:46;;;;;;;5.80;1.97;;;;;;;;;;5036327;28;20232;-52
2023/03/31 05:03:12;;;;;;;3.27;1.50;;;;;;;;;;5045135;28;20248;-52
2023/03/31 05:05:40;;;;;;;5.63;1.50;;;;;;;;;;5035732;28;20220;-52
2023/03/31 05:08:07;;;;;;;6.57;2.40;;;;;;;;;;5034018;28;20232;-52
2023/03/31 05:10:33;;;;;;;3.37;1.43;;;;;;;;;;5039963;28;20237;-52
2023/03/31 05:13:00;;;;;;;3.60;1.40;;;;;;;;;;5035683;28;20240;-54
2023/03/31 05:15:26;;;;;;;3.17;1.50;;;;;;;;;;5026615;28;20256;-52
2023/03/31 05:17:53;;;;;;;2.33;1.40;;;;;;;;;;5029918;28;20236;-53
2023/03/31 05:20:20;;;;;;;4.67;1.63;;;;;;;;;;5028764;28;20240;-53
2023/03/31 05:22:48;;;;;;;4.10;1.60;;;;;;;;;;5040583;28;20232;-52
2023/03/31 05:25:17;;;;;;;5.83;2.57;;;;;;;;;;5040535;28;20757;-53
2023/03/31 05:27:44;;;;;;;6.17;2.27;;;;;;;;;;5040243;28;20319;-51
2023/03/31 05:30:11;;;;;;;7.27;2.60;;;;;;;;;;5040513;28;20591;-51
2023/03/31 05:32:37;;;;;;;3.23;1.93;;;;;;;;;;5038745;28;20235;-51
2023/03/31 05:35:04;;;;;;;4.47;2.07;;;;;;;;;;5040499;28;20231;-53
2023/03/31 05:37:31;;;;;;;4.43;1.70;;;;;;;;;;5041074;28;20239;-51
2023/03/31 05:39:59;;;;;;;3.03;1.63;;;;;;;;;;5038524;28;20617;-52
2023/03/31 05:42:25;;;;;;;6.73;3.07;;;;;;;;;;5038353;28;20232;-52
2023/03/31 05:44:52;;;;;;;4.67;1.63;;;;;;;;;;5027290;28;20232;-52
2023/03/31 05:47:18;;;;;;;7.23;2.17;;;;;;;;;;5031269;28;20292;-51
2023/03/31 05:49:45;;;;;;;4.80;1.93;;;;;;;;;;5029678;28;20721;-52
2023/03/31 05:52:12;;;;;;;3.50;1.87;;;;;;;;;;5035838;28;20240;-53
2023/03/31 05:54:39;;;;;;;4.10;1.30;;;;;;;;;;5040649;28;20916;-52
2023/03/31 05:57:08;;;;;;;2.37;1.60;;;;;;;;;;5038087;28;20224;-52
2023/03/31 05:59:35;;;;;;;8.57;2.37;;;;;;;;;;5032123;28;20228;-52
2023/03/31 06:02:01;;;;;;;2.20;1.70;;;;;;;;;;5030725;28;20228;-53
2023/03/31 06:04:28;;;;;;;3.93;1.63;;;;;;;;;;5040809;28;20238;-52
2023/03/31 06:06:56;;;;;;;4.80;1.90;;;;;;;;;;5038282;28;20255;-52
2023/03/31 06:09:23;;;;;;;4.40;2.07;;;;;;;;;;5038526;28;20239;-52
2023/03/31 06:11:50;;;;;;;3.30;1.80;;;;;;;;;;5039219;28;20235;-52
2023/03/31 06:14:18;;;;;;;2.90;1.63;;;;;;;;;;5031381;28;20232;-51
2023/03/31 06:16:46;;;;;;;4.33;1.70;;;;;;;;;;5027939;28;20225;-51
2023/03/31 06:19:13;;;;;;;4.33;1.70;;;;;;;;;;5040854;28;20236;-53
2023/03/31 06:21:39;;;;;;;5.60;1.83;;;;;;;;;;5041974;28;20246;-52
2023/03/31 06:24:06;;;;;;;3.90;1.67;;;;;;;;;;5039270;28;20228;-52
2023/03/31 06:26:32;;;;;;;3.07;1.60;;;;;;;;;;5036778;28;20300;-54
2023/03/31 06:28:59;;;;;;;5.20;1.90;;;;;;;;;;5039427;28;20653;-52
2023/03/31 06:31:27;;;;;;;4.67;1.63;;;;;;;;;;5046702;28;20228;-52
2023/03/31 06:33:54;;;;;;;8.50;2.57;;;;;;;;;;5039767;28;20240;-53
2023/03/31 06:36:21;;;;;;;3.80;1.80;;;;;;;;;;5040040;28;20240;-51
2023/03/31 06:38:48;;;;;;;10.63;2.53;;;;;;;;;;5042412;28;20232;-53
2023/03/31 06:41:15;;;;;;;2.47;1.77;;;;;;;;;;5037019;28;21015;-53
2023/03/31 06:43:42;;;;;;;6.93;2.13;;;;;;;;;;5039179;28;20240;-53
2023/03/31 06:46:09;;;;;;;8.53;1.97;;;;;;;;;;5043654;28;20326;-52
2023/03/31 06:48:37;;;;;;;10.13;2.37;;;;;;;;;;5044243;28;20224;-52
2023/03/31 06:51:05;;;;;;;5.47;2.40;;;;;;;;;;5039205;28;20231;-53
2023/03/31 06:53:31;;;;;;;5.37;1.77;;;;;;;;;;5045736;28;20401;-53
2023/03/31 06:55:58;;;;;;;6.23;2.90;;;;;;;;;;5039347;28;20228;-57
2023/03/31 06:58:25;;;;;;;6.67;2.40;;;;;;;;;;5043013;28;20311;-52
2023/03/31 07:00:51;;;;;;;5.13;2.20;;;;;;;;;;5029916;28;20240;-52
2023/03/31 07:03:21;;;;;;;3.87;1.67;;;;;;;;;;5032890;28;20232;-54
2023/03/31 07:05:50;;;;;;;5.10;1.90;;;;;;;;;;5030013;28;20777;-54
2023/03/31 07:08:17;;;;;;;3.43;1.93;;;;;;;;;;5032178;28;20265;-51
2023/03/31 07:10:45;;;;;;;3.73;1.70;;;;;;;;;;5039056;28;20295;-51
2023/03/31 07:13:12;;;;;;;3.40;1.88;;;;;;;;;;5029821;28;20237;-51
2023/03/31 07:15:39;;;;;;;3.03;2.07;;;;;;;;;;5039763;28;20710;-52
2023/03/31 07:18:06;;;;;;;4.38;2.25;;;;;;;;;;5033773;28;20286;-51
2023/03/31 07:20:33;;;;;;;3.23;1.73;;;;;;;;;;5044009;28;20242;-53
2023/03/31 07:23:03;;;;;;;3.80;1.80;;;;;;;;;;5033240;28;20256;-52
2023/03/31 07:25:29;;;;;;;9.38;2.30;;;;;;;;;;5038854;28;20307;-52
2023/03/31 07:27:56;;;;;;;6.47;1.98;;;;;;;;;;5040204;28;20695;-51
2023/03/31 07:30:23;;;;;;;2.22;1.52;;;;;;;;;;5032120;28;20243;-50
2023/03/31 07:32:50;;;;;;;4.65;1.77;;;;;;;;;;5029229;28;20287;-52
2023/03/31 07:35:17;;;;;;;3.72;1.60;;;;;;;;;;5028565;28;20224;-51
2023/03/31 07:37:44;;;;;;;3.95;3.13;;;;;;;;;;5043023;28;20248;-51
2023/03/31 07:40:14;;;;;;;6.28;2.03;;;;;;;;;;5042558;28;20237;-52
2023/03/31 07:42:40;;;;;;;3.90;1.70;;;;;;;;;;5035558;28;20298;-52
2023/03/31 07:45:09;;;;;;;5.38;1.98;;;;;;;;;;5043076;28;20235;-53
2023/03/31 07:47:37;;;;;;;4.22;1.50;;;;;;;;;;5042605;28;20243;-52
2023/03/31 07:50:04;;;;;;;3.42;1.58;;;;;;;;;;5038761;28;20598;-52
2023/03/31 07:52:30;;;;;;;7.90;1.83;;;;;;;;;;5026823;28;20240;-52
2023/03/31 07:54:57;;;;;;;3.55;1.70;;;;;;;;;;5037926;28;20240;-57
2023/03/31 07:57:25;;;;;;;3.53;1.95;;;;;;;;;;5037534;28;20243;-52
2023/03/31 07:59:51;;;;;;;1.63;1.27;;;;;;;;;;5028800;28;20603;-52
2023/03/31 08:02:18;;;;;;;3.55;1.65;;;;;;;;;;5039467;28;20235;-52
2023/03/31 08:04:45;;;;;;;7.60;3.03;;;;;;;;;;5043008;28;20793;-50
2023/03/31 08:07:13;;;;;;;3.22;1.45;;;;;;;;;;5030698;28;20239;-51
2023/03/31 08:09:39;;;;;;;3.58;1.40;;;;;;;;;;5031070;28;20232;-53
2023/03/31 08:12:06;;;;;;;5.43;2.05;;;;;;;;;;5032438;28;20235;-51
2023/03/31 08:14:34;;;;;;;8.38;2.17;;;;;;;;;;5027539;28;20229;-54
2023/03/31 08:17:01;;;;;;;6.55;1.77;;;;;;;;;;5025423;28;20267;-52
2023/03/31 08:19:27;;;;;;;9.15;2.53;;;;;;;;;;5036360;28;20317;-53
2023/03/31 08:21:54;;;;;;;7.53;2.40;;;;;;;;;;5040442;28;20910;-52
2023/03/31 08:24:21;;;;;;;3.88;1.75;;;;;;;;;;5027767;28;20291;-55
2023/03/31 08:26:47;;;;;;;3.35;1.63;;;;;;;;;;5032473;28;20311;-52
2023/03/31 08:29:14;;;;;;;3.75;1.60;;;;;;;;;;5016549;28;20245;-52
2023/03/31 08:31:42;;;;;;;3.92;1.40;;;;;;;;;;5027669;28;20379;-51
2023/03/31 08:34:09;;;;;;;3.33;1.50;;;;;;;;;;5021158;28;20267;-51
2023/03/31 08:36:35;;;;;;;4.57;2.17;;;;;;;;;;5028691;28;20228;-52
2023/03/31 08:39:03;;;;;;;4.40;1.67;;;;;;;;;;5021380;28;20260;-53
2023/03/31 08:41:48;;;;;;;5.43;1.83;;;;;;;;;;5023512;28;20228;-52
2023/03/31 08:44:16;;;;;;;6.28;1.77;;;;;;;;;;5028869;28;20313;-54
2023/03/31 08:46:44;;;;;;;3.20;1.65;;;;;;;;;;5028698;28;20227;-51
2023/03/31 08:49:13;;;;;;;3.22;1.38;;;;;;;;;;5034666;28;20800;-52
2023/03/31 08:51:41;;;;;;;4.90;2.17;;;;;;;;;;5033342;28;20239;-53
2023/03/31 08:54:11;;;;;;;4.53;1.77;;;;;;;;;;5026825;28;20228;-53
2023/03/31 08:56:40;;;;;;;2.92;1.65;;;;;;;;;;5020960;28;20236;-51
2023/03/31 08:59:15;;;;;;;5.50;2.00;;;;;;;;;;5024894;28;20316;-52
2023/03/31 09:01:48;;;;;;;8.05;2.97;;;;;;;;;;5033321;28;20949;-50
2023/03/31 09:04:20;;;;;;;4.68;2.38;;;;;;;;;;5039043;28;20243;-50
2023/03/31 09:06:50;;;;;;;4.03;1.92;;;;;;;;;;5036255;28;20791;-52
2023/03/31 09:09:22;;;;;;;5.68;1.73;;;;;;;;;;5033840;28;20722;-54
2023/03/31 09:11:51;;;;;;;7.35;1.90;;;;;;;;;;5039484;28;20259;-53
2023/03/31 09:14:35;;;;;;;8.57;1.60;;;;;;;;;;5038868;28;20259;-53
2023/03/31 09:17:10;;;;;;;4.07;1.60;;;;;;;;;;5036289;28;20252;-53
2023/03/31 09:19:38;;;;;;;4.13;1.77;;;;;;;;;;5031029;28;20235;-53
2023/03/31 09:22:06;;;;;;;8.55;2.35;;;;;;;;;;5033812;28;20474;-51
2023/03/31 09:24:34;;;;;;;3.97;1.60;;;;;;;;;;5035097;28;20732;-51
2023/03/31 09:27:02;;;;;;;11.75;5.78;;;;;;;;;;5034180;28;20705;-52
2023/03/31 09:29:30;;;;;;;5.97;1.85;;;;;;;;;;5033152;28;20251;-52
2023/03/31 09:32:01;;;;;;;3.53;1.77;;;;;;;;;;5036184;28;20653;-53
2023/03/31 09:34:30;;;;;;;4.20;1.67;;;;;;;;;;5038648;28;20383;-58
2023/03/31 09:36:56;;;;;;;4.95;1.85;;;;;;;;;;5042341;28;20236;-52
2023/03/31 09:39:23;;;;;;;8.35;2.00;;;;;;;;;;5036720;28;20753;-51
2023/03/31 09:41:50;;;;;;;3.70;1.33;;;;;;;;;;5035792;28;20285;-52
2023/03/31 09:44:25;;;;;;;5.85;1.92;;;;;;;;;;5040979;28;20247;-52
2023/03/31 09:46:53;;;;;;;2.70;1.35;;;;;;;;;;5024899;28;21265;-53
2023/03/31 09:49:21;;;;;;;2.97;1.48;;;;;;;;;;5030591;28;20236;-50
2023/03/31 09:51:56;;;;;;;4.32;1.70;;;;;;;;;;5041809;28;20258;-52
2023/03/31 09:54:24;;;;;;;3.53;1.52;;;;;;;;;;5037648;28;20737;-51
2023/03/31 09:56:52;;;;;;;3.67;1.60;;;;;;;;;;5039074;28;20235;-52
2023/03/31 09:59:20;;;;;;;6.22;2.20;;;;;;;;;;5039465;28;20273;-51
2023/03/31 10:01:48;;;;;;;6.30;2.53;;;;;;;;;;5034821;28;20896;-53
2023/03/31 10:04:18;;;;;;;4.57;1.67;;;;;;;;;;5036767;28;20780;-52
2023/03/31 10:06:46;;;;;;;5.95;2.42;;;;;;;;;;5045856;28;20235;-52
2023/03/31 10:09:15;;;;;;;3.20;1.90;;;;;;;;;;5039646;28;20598;-52
2023/03/31 10:11:51;;;;;;;5.78;2.13;;;;;;;;;;5042695;28;20259;-53
2023/03/31 10:14:18;;;;;;;4.82;1.95;;;;;;;;;;5038168;28;20231;-53
2023/03/31 10:16:46;;;;;;;3.92;2.25;;;;;;;;;;5027539;28;20957;-52
2023/03/31 10:19:14;;;;;;;2.13;1.63;;;;;;;;;;5025997;28;20237;-52
2023/03/31 10:21:40;;;;;;;3.42;1.60;;;;;;;;;;5035809;28;20301;-52
2023/03/31 10:24:10;;;;;;;6.38;2.85;;;;;;;;;;5028934;28;20233;-52
2023/03/31 10:26:39;;;;;;;7.28;2.08;;;;;;;;;;5026013;28;20236;-51
2023/03/31 10:29:11;;;;;;;4.60;2.45;;;;;;;;;;5023339;28;20240;-52
2023/03/31 10:31:39;;;;;;;4.70;2.50;;;;;;;;;;5036148;28;20256;-51
2023/03/31 10:34:06;;;;;;;4.25;2.17;;;;;;;;;;5035546;28;20307;-51
2023/03/31 10:36:34;;;;;;;4.95;1.85;;;;;;;;;;5035733;28;20235;-52
2023/03/31 10:39:05;;;;;;;2.80;1.75;;;;;;;;;;5032925;23;20235;-51
2023/03/31 10:41:32;;;;;;;11.95;7.05;;;;;;;;;;5024339;28;20240;-51
2023/03/31 10:44:01;;;;;;;3.83;1.40;;;;;;;;;;5040413;28;20329;-52
2023/03/31 10:46:39;;;;;;;1.58;1.30;;;;;;;;;;5014298;28;20312;-52
2023/03/31 10:49:14;;;;;;;5.18;1.67;;;;;;;;;;5039636;28;20417;-52
2023/03/31 10:51:48;;;;;;;1.90;1.73;;;;;;;;;;5025801;28;20259;-51
2023/03/31 10:54:14;;;;;;;2.63;1.48;;;;;;;;;;5024095;28;20233;-52
2023/03/31 10:56:43;;;;;;;2.28;1.30;;;;;;;;;;5039056;28;20232;-53
2023/03/31 10:59:19;;;;;;;5.72;1.80;;;;;;;;;;5039864;28;20330;-51
2023/03/31 11:01:52;;;;;;;2.47;1.45;;;;;;;;;;5045073;28;20238;-52
2023/03/31 11:04:28;;;;;;;2.83;2.13;;;;;;;;;;5039625;28;20241;-52
2023/03/31 11:06:57;;;;;;;3.55;1.52;;;;;;;;;;5028825;28;20228;-52
2023/03/31 11:09:35;;;;;;;5.70;1.80;;;;;;;;;;5035516;28;20327;-52
2023/03/31 11:12:05;;;;;;;3.00;1.35;;;;;;;;;;5025194;28;20228;-51
2023/03/31 11:14:40;;;;;;;9.48;4.25;;;;;;;;;;5017943;28;20233;-53
2023/03/31 11:17:12;;;;;;;3.92;1.40;;;;;;;;;;5023080;28;20311;-54
2023/03/31 11:19:42;;;;;;;1.73;0.93;;;;;;;;;;5024817;28;20225;-53
2023/03/31 11:22:12;;;;;;;3.58;1.33;;;;;;;;;;5018273;28;20238;-52
2023/03/31 11:24:51;;;;;;;3.10;1.20;;;;;;;;;;5024904;28;20632;-53
2023/03/31 11:27:25;;;;;;;7.80;1.52;;;;;;;;;;5021080;28;20327;-52
2023/03/31 11:29:57;;;;;;;3.83;1.13;;;;;;;;;;5023975;28;20251;-52
2023/03/31 11:32:33;;;;;;;5.43;1.30;;;;;;;;;;5025312;28;20239;-52
2023/03/31 11:35:06;;;;;;;2.47;1.10;;;;;;;;;;5025084;28;20642;-53
2023/03/31 11:37:48;;;;;;;3.85;1.52;;;;;;;;;;5025630;28;20315;-52
2023/03/31 11:40:26;;;;;;;2.85;1.20;;;;;;;;;;5024605;28;20244;-53
2023/03/31 11:42:55;;;;;;;3.28;1.45;;;;;;;;;;5027837;28;20242;-51
2023/03/31 11:45:26;;;;;;;6.78;1.60;;;;;;;;;;5025348;28;20237;-51
2023/03/31 11:47:56;;;;;;;6.18;2.53;;;;;;;;;;5025541;28;20253;-49
2023/03/31 11:50:24;;;;;;;2.28;1.50;;;;;;;;;;5025292;28;20629;-53
2023/03/31 11:52:54;;;;;;;7.18;1.55;;;;;;;;;;5041347;28;20232;-49
2023/03/31 11:55:23;;;;;;;4.20;1.63;;;;;;;;;;5035400;28;20224;-50
2023/03/31 11:57:55;;;;;;;2.10;1.63;;;;;;;;;;5034077;28;20232;-51
2023/03/31 12:00:23;;;;;;;3.25;1.20;;;;;;;;;;5038579;28;20228;-51
2023/03/31 12:02:53;;;;;;;5.88;2.13;;;;;;;;;;5042830;28;20787;-50
2023/03/31 12:05:21;;;;;;;3.97;2.05;;;;;;;;;;5046472;28;20239;-49
2023/03/31 12:07:50;;;;;;;2.40;1.65;;;;;;;;;;5044058;28;20231;-53
2023/03/31 12:10:19;;;;;;;4.00;2.55;;;;;;;;;;5049823;28;20230;-51
2023/03/31 12:12:49;;;;;;;5.03;2.85;;;;;;;;;;5045265;28;20314;-52
2023/03/31 12:15:18;;;;;;;8.80;3.63;;;;;;;;;;5024108;28;20261;-51
2023/03/31 12:17:47;;;;;;;4.32;2.97;;;;;;;;;;5022416;28;20229;-52
2023/03/31 12:20:26;;;;;;;4.65;4.10;;;;;;;;;;5023953;28;20241;-52
2023/03/31 12:22:54;;;;;;;4.03;2.92;;;;;;;;;;5010642;28;20278;-50
2023/03/31 12:25:24;;;;;;;5.60;3.65;;;;;;;;;;5023791;28;20251;-52
2023/03/31 12:27:53;;;;;;;5.13;3.55;;;;;;;;;;5032226;28;20243;-51
2023/03/31 12:30:22;;;;;;;4.22;3.08;;;;;;;;;;5018925;28;20259;-55
2023/03/31 12:32:53;;;;;;;11.20;4.68;;;;;;;;;;5030054;28;20315;-52
2023/03/31 12:35:23;;;;;;;3.53;3.33;;;;;;;;;;5021889;28;20714;-51
2023/03/31 12:38:12;;;;;;;4.57;4.05;;;;;;;;;;5027380;28;20367;-51
2023/03/31 12:40:42;;;;;;;4.35;2.67;;;;;;;;;;5032222;28;20229;-51
2023/03/31 12:43:19;;;;;;;7.28;2.85;;;;;;;;;;5020123;28;20243;-51
2023/03/31 12:45:49;;;;;;;3.05;2.72;;;;;;;;;;5032036;28;20243;-51
2023/03/31 12:48:21;;;;;;;4.78;2.50;;;;;;;;;;5023724;28;20308;-51
2023/03/31 12:50:56;;;;;;;6.63;2.10;;;;;;;;;;5025217;28;20785;-52
2023/03/31 12:53:30;;;;;;;4.65;1.88;;;;;;;;;;5015565;28;22564;-52
2023/03/31 12:55:57;;;;;;;3.47;2.30;;;;;;;;;;5021871;28;20248;-52
2023/03/31 12:58:40;;;;;;;4.65;2.80;;;;;;;;;;5016417;28;20248;-53
2023/03/31 13:01:09;;;;;;;3.40;3.10;;;;;;;;;;5029721;28;20239;-56
2023/03/31 13:03:36;;;;;;;6.60;2.90;;;;;;;;;;5026439;28;20259;-58
2023/03/31 13:06:05;;;;;;;5.32;3.50;;;;;;;;;;5024784;28;20702;-59
2023/03/31 13:08:51;;;;;;;7.60;3.70;;;;;;;;;;5026788;28;20248;-59
2023/03/31 13:11:18;;;;;;;7.93;4.30;;;;;;;;;;5040172;28;20262;-56
2023/03/31 13:13:45;;;;;;;4.83;4.13;;;;;;;;;;5037833;28;20232;-54
2023/03/31 13:16:19;;;;;;;6.87;5.07;;;;;;;;;;5038018;28;20236;-52
2023/03/31 13:18:50;;;;;;;8.23;5.37;;;;;;;;;;5038794;28;20239;-52
2023/03/31 13:21:18;;;;;;;5.90;5.37;;;;;;;;;;5040932;28;20239;-52
2023/03/31 13:23:46;;;;;;;11.87;5.70;;;;;;;;;;5036911;28;20232;-52
2023/03/31 13:26:27;;;;;;;5.47;5.07;;;;;;;;;;5043708;28;20628;-52
2023/03/31 13:29:08;;;;;;;5.93;5.33;;;;;;;;;;5043308;28;20262;-53
2023/03/31 13:31:50;;;;;;;8.37;5.53;;;;;;;;;;5040690;28;20302;-53
2023/03/31 13:34:16;;;;;;;9.30;6.17;;;;;;;;;;5042916;28;20285;-52
2023/03/31 13:36:57;;;;;;;8.73;6.00;;;;;;;;;;5043536;28;20709;-53
2023/03/31 13:39:41;;;;;;;6.77;5.93;;;;;;;;;;5042814;28;20235;-56
2023/03/31 13:42:17;;;;;;;8.00;5.73;;;;;;;;;;5016469;28;20254;-55
2023/03/31 13:44:54;;;;;;;6.53;5.70;;;;;;;;;;5035223;28;20286;-54
2023/03/31 13:47:52;;;;;;;6.63;6.07;;;;;;;;;;5030356;28;20316;-53
2023/03/31 13:50:43;;;;;;;7.87;5.50;;;;;;;;;;5041699;28;20315;-53
2023/03/31 13:53:20;;;;;;;7.83;5.53;;;;;;;;;;4988729;28;20332;-53
2023/03/31 13:55:56;;;;;;;7.40;5.73;;;;;;;;;;5029159;28;20329;-52
2023/03/31 13:58:27;;;;;;;4.43;3.67;;;;;;;;;;5023267;28;20236;-52
2023/03/31 14:01:07;;;;;;;3.00;2.53;;;;;;;;;;5022592;28;20754;-53
2023/03/31 14:03:38;;;;;;;5.33;3.77;;;;;;;;;;5021671;28;20307;-53
2023/03/31 14:06:06;;;;;;;4.33;2.43;;;;;;;;;;5022326;28;20236;-53
2023/03/31 14:08:39;;;;;;;3.30;2.23;;;;;;;;;;5019909;28;20297;-52
2023/03/31 14:11:16;;;;;;;2.40;2.00;;;;;;;;;;5032205;28;20766;-52
2023/03/31 14:13:43;;;;;;;2.23;1.57;;;;;;;;;;5020608;28;20251;-53
2023/03/31 14:16:09;;;;;;;1.70;1.60;;;;;;;;;;5026205;28;20328;-52
2023/03/31 14:18:38;;;;;;;2.37;1.60;;;;;;;;;;5023275;28;20240;-53
2023/03/31 14:21:12;;;;;;;1.90;1.43;;;;;;;;;;5033388;28;20236;-52
2023/03/31 14:23:44;;;;;;;4.03;1.37;;;;;;;;;;5018142;28;20259;-52
2023/03/31 14:26:13;;;;;;;1.20;1.10;;;;;;;;;;5021457;28;20236;-52
2023/03/31 14:28:51;;;;;;;2.03;1.20;;;;;;;;;;5022450;28;20232;-53
2023/03/31 14:31:22;;;;;;;1.10;1.00;;;;;;;;;;5021029;28;20743;-52
2023/03/31 14:33:55;;;;;;;2.80;1.37;;;;;;;;;;5022435;28;20228;-52
2023/03/31 14:36:27;;;;;;;0.83;0.83;;;;;;;;;;5021241;28;20878;-53
2023/03/31 14:39:00;;;;;;;1.40;1.20;;;;;;;;;;5021634;28;20248;-53
2023/03/31 14:41:29;;;;;;;2.50;0.90;;;;;;;;;;5024640;28;20308;-53
2023/03/31 14:43:56;;;;;;;1.53;1.37;;;;;;;;;;5031704;28;20232;-53
2023/03/31 14:46:23;;;;;;;4.40;1.30;;;;;;;;;;5033609;28;20319;-54
2023/03/31 14:48:50;;;;;;;1.80;1.10;;;;;;;;;;5042855;28;20236;-54
2023/03/31 14:51:17;;;;;;;1.07;0.70;;;;;;;;;;5040225;28;20932;-54
2023/03/31 14:53:44;;;;;;;2.83;1.10;;;;;;;;;;5027814;28;20279;-55
2023/03/31 14:56:13;;;;;;;1.10;1.00;;;;;;;;;;5027010;28;20233;-56
2023/03/31 14:58:41;;;;;;;1.00;1.00;;;;;;;;;;5026640;28;20239;-56
2023/03/31 15:01:09;;;;;;;1.30;1.20;;;;;;;;;;5025554;28;20236;-56